sensor_id;sensor_type;location;lat;lon;timestamp;temperature;humidity
11934;DHT22;6026;48.784;9.198;2023-08-06T00:02:13;15.50;99.90
11934;DHT22;6026;48.784;9.198;2023-08-06T00:04:39;15.50;99.90
11934;DHT22;6026;48.784;9.198;2023-08-06T00:07:04;15.50;99.90
11934;DHT22;6026;48.784;9.198;2023-08-06T00:09:30;15.60;99.90
11934;DHT22;6026;48.784;9.198;2023-08-06T00:11:55;15.60;99.90
11934;DHT22;6026;48.784;9.198;2023-08-06T00:14:21;15.50;99.90
11934;DHT22;6026;48.784;9.198;2023-08-06T00:16:46;15.50;99.90
11934;DHT22;6026;48.784;9.198;2023-08-06T00:19:12;15.40;99.90
11934;DHT22;6026;48.784;9.198;2023-08-06T00:21:38;15.30;99.90
11934;DHT22;6026;48.784;9.198;2023-08-06T00:24:03;15.40;99.90
11934;DHT22;6026;48.784;9.198;2023-08-06T00:26:29;15.30;99.90
11934;DHT22;6026;48.784;9.198;2023-08-06T00:28:54;15.10;99.90
11934;DHT22;6026;48.784;9.198;2023-08-06T00:31:20;15.00;99.90
11934;DHT22;6026;48.784;9.198;2023-08-06T00:33:45;15.00;99.90
11934;DHT22;6026;48.784;9.198;2023-08-06T00:36:11;15.00;99.90
11934;DHT22;6026;48.784;9.198;2023-08-06T00:38:36;15.00;99.90
11934;DHT22;6026;48.784;9.198;2023-08-06T00:41:02;15.00;99.90
11934;DHT22;6026;48.784;9.198;2023-08-06T00:43:27;15.00;99.90
11934;DHT22;6026;48.784;9.198;2023-08-06T00:45:53;15.00;99.90
11934;DHT22;6026;48.784;9.198;2023-08-06T00:48:19;15.00;99.90
11934;DHT22;6026;48.784;9.198;2023-08-06T00:50:45;14.90;99.90
11934;DHT22;6026;48.784;9.198;2023-08-06T00:53:11;14.80;99.90
11934;DHT22;6026;48.784;9.198;2023-08-06T00:55:37;14.90;99.90
11934;DHT22;6026;48.784;9.198;2023-08-06T00:58:03;14.80;99.90
11934;DHT22;6026;48.784;9.198;2023-08-06T01:00:29;14.80;99.90
11934;DHT22;6026;48.784;9.198;2023-08-06T01:02:55;14.70;99.90
11934;DHT22;6026;48.784;9.198;2023-08-06T01:05:22;14.60;99.90
11934;DHT22;6026;48.784;9.198;2023-08-06T01:11:05;14.60;99.90
11934;DHT22;6026;48.784;9.198;2023-08-06T01:13:47;14.60;99.90
11934;DHT22;6026;48.784;9.198;2023-08-06T01:16:19;14.50;99.90
11934;DHT22;6026;48.784;9.198;2023-08-06T01:18:47;14.50;99.90
11934;DHT22;6026;48.784;9.198;2023-08-06T01:21:18;14.50;99.90
11934;DHT22;6026;48.784;9.198;2023-08-06T01:23:44;14.50;99.90
11934;DHT22;6026;48.784;9.198;2023-08-06T01:29:11;14.60;99.90
11934;DHT22;6026;48.784;9.198;2023-08-06T01:31:41;14.70;99.90
11934;DHT22;6026;48.784;9.198;2023-08-06T01:34:17;14.70;99.90
11934;DHT22;6026;48.784;9.198;2023-08-06T01:36:43;14.80;99.90
11934;DHT22;6026;48.784;9.198;2023-08-06T01:39:09;14.70;99.90
11934;DHT22;6026;48.784;9.198;2023-08-06T01:41:35;14.80;99.90
11934;DHT22;6026;48.784;9.198;2023-08-06T01:44:01;14.70;99.90
11934;DHT22;6026;48.784;9.198;2023-08-06T01:46:26;14.70;99.90
11934;DHT22;6026;48.784;9.198;2023-08-06T01:48:52;14.80;99.90
11934;DHT22;6026;48.784;9.198;2023-08-06T01:51:17;14.80;99.90
11934;DHT22;6026;48.784;9.198;2023-08-06T01:53:43;14.80;99.90
11934;DHT22;6026;48.784;9.198;2023-08-06T01:56:09;14.80;99.90
11934;DHT22;6026;48.784;9.198;2023-08-06T01:58:34;14.80;99.90
11934;DHT22;6026;48.784;9.198;2023-08-06T02:01:01;14.80;99.90
11934;DHT22;6026;48.784;9.198;2023-08-06T02:03:27;14.80;99.90
11934;DHT22;6026;48.784;9.198;2023-08-06T02:05:52;14.80;99.90
11934;DHT22;6026;48.784;9.198;2023-08-06T02:08:18;14.90;99.90
11934;DHT22;6026;48.784;9.198;2023-08-06T02:10:45;14.80;99.90
11934;DHT22;6026;48.784;9.198;2023-08-06T02:13:10;14.90;99.90
11934;DHT22;6026;48.784;9.198;2023-08-06T02:15:41;14.80;99.90
11934;DHT22;6026;48.784;9.198;2023-08-06T02:18:07;14.80;99.90
11934;DHT22;6026;48.784;9.198;2023-08-06T02:20:32;14.70;99.90
11934;DHT22;6026;48.784;9.198;2023-08-06T02:22:58;14.60;99.90
11934;DHT22;6026;48.784;9.198;2023-08-06T02:25:24;14.60;99.90
11934;DHT22;6026;48.784;9.198;2023-08-06T02:27:49;14.50;99.90
11934;DHT22;6026;48.784;9.198;2023-08-06T02:30:15;14.50;99.90
11934;DHT22;6026;48.784;9.198;2023-08-06T02:32:40;14.40;99.90
11934;DHT22;6026;48.784;9.198;2023-08-06T02:35:06;14.40;99.90
11934;DHT22;6026;48.784;9.198;2023-08-06T02:37:33;14.30;99.90
11934;DHT22;6026;48.784;9.198;2023-08-06T02:39:59;14.30;99.90
11934;DHT22;6026;48.784;9.198;2023-08-06T02:42:25;14.20;99.90
11934;DHT22;6026;48.784;9.198;2023-08-06T02:44:52;14.30;99.90
11934;DHT22;6026;48.784;9.198;2023-08-06T02:47:20;14.20;99.90
11934;DHT22;6026;48.784;9.198;2023-08-06T02:49:46;14.20;99.90
11934;DHT22;6026;48.784;9.198;2023-08-06T02:52:12;14.10;99.90
11934;DHT22;6026;48.784;9.198;2023-08-06T02:54:37;14.10;99.90
11934;DHT22;6026;48.784;9.198;2023-08-06T02:57:04;14.10;99.90
11934;DHT22;6026;48.784;9.198;2023-08-06T02:59:30;14.10;99.90
11934;DHT22;6026;48.784;9.198;2023-08-06T03:01:55;14.10;99.90
11934;DHT22;6026;48.784;9.198;2023-08-06T03:04:21;14.10;99.90
11934;DHT22;6026;48.784;9.198;2023-08-06T03:06:46;14.10;99.90
11934;DHT22;6026;48.784;9.198;2023-08-06T03:09:12;14.10;99.90
11934;DHT22;6026;48.784;9.198;2023-08-06T03:11:38;14.20;99.90
11934;DHT22;6026;48.784;9.198;2023-08-06T03:14:03;14.20;99.90
11934;DHT22;6026;48.784;9.198;2023-08-06T03:16:29;14.30;99.90
11934;DHT22;6026;48.784;9.198;2023-08-06T03:18:55;14.40;99.90
11934;DHT22;6026;48.784;9.198;2023-08-06T03:21:21;14.40;99.90
11934;DHT22;6026;48.784;9.198;2023-08-06T03:23:49;14.40;99.90
11934;DHT22;6026;48.784;9.198;2023-08-06T03:26:15;14.50;99.90
11934;DHT22;6026;48.784;9.198;2023-08-06T03:28:40;14.50;99.90
11934;DHT22;6026;48.784;9.198;2023-08-06T03:31:06;14.50;99.90
11934;DHT22;6026;48.784;9.198;2023-08-06T03:33:31;14.60;99.90
11934;DHT22;6026;48.784;9.198;2023-08-06T03:35:57;14.70;99.90
11934;DHT22;6026;48.784;9.198;2023-08-06T03:38:23;14.60;99.90
11934;DHT22;6026;48.784;9.198;2023-08-06T03:40:49;14.60;99.90
11934;DHT22;6026;48.784;9.198;2023-08-06T03:43:15;14.60;99.90
11934;DHT22;6026;48.784;9.198;2023-08-06T03:45:41;14.50;99.90
11934;DHT22;6026;48.784;9.198;2023-08-06T03:48:07;14.40;99.90
11934;DHT22;6026;48.784;9.198;2023-08-06T03:50:32;14.40;99.90
11934;DHT22;6026;48.784;9.198;2023-08-06T03:52:58;14.20;99.90
11934;DHT22;6026;48.784;9.198;2023-08-06T03:55:23;14.20;99.90
11934;DHT22;6026;48.784;9.198;2023-08-06T03:57:49;14.20;99.90
11934;DHT22;6026;48.784;9.198;2023-08-06T04:00:15;14.10;99.90
11934;DHT22;6026;48.784;9.198;2023-08-06T04:02:40;14.20;99.90
11934;DHT22;6026;48.784;9.198;2023-08-06T04:05:06;14.20;99.90
11934;DHT22;6026;48.784;9.198;2023-08-06T04:07:32;14.20;99.90
11934;DHT22;6026;48.784;9.198;2023-08-06T04:09:59;14.10;99.90
11934;DHT22;6026;48.784;9.198;2023-08-06T04:12:25;14.10;99.90
11934;DHT22;6026;48.784;9.198;2023-08-06T04:14:51;14.10;99.90
11934;DHT22;6026;48.784;9.198;2023-08-06T04:17:18;14.00;99.90
11934;DHT22;6026;48.784;9.198;2023-08-06T04:19:54;13.90;99.90
11934;DHT22;6026;48.784;9.198;2023-08-06T04:22:21;13.90;99.90
11934;DHT22;6026;48.784;9.198;2023-08-06T04:24:47;13.90;99.90
11934;DHT22;6026;48.784;9.198;2023-08-06T04:27:14;13.90;99.90
11934;DHT22;6026;48.784;9.198;2023-08-06T04:29:39;13.90;99.90
11934;DHT22;6026;48.784;9.198;2023-08-06T04:32:07;14.00;99.90
11934;DHT22;6026;48.784;9.198;2023-08-06T04:34:34;14.00;99.90
11934;DHT22;6026;48.784;9.198;2023-08-06T04:37:00;14.00;99.90
11934;DHT22;6026;48.784;9.198;2023-08-06T04:39:26;14.00;99.90
11934;DHT22;6026;48.784;9.198;2023-08-06T04:41:51;14.10;99.90
11934;DHT22;6026;48.784;9.198;2023-08-06T04:44:17;14.10;99.90
11934;DHT22;6026;48.784;9.198;2023-08-06T04:46:42;14.10;99.90
11934;DHT22;6026;48.784;9.198;2023-08-06T04:49:08;14.00;99.90
11934;DHT22;6026;48.784;9.198;2023-08-06T04:51:33;13.90;99.90
11934;DHT22;6026;48.784;9.198;2023-08-06T04:53:59;13.80;99.90
11934;DHT22;6026;48.784;9.198;2023-08-06T04:56:24;13.80;99.90
11934;DHT22;6026;48.784;9.198;2023-08-06T04:58:50;13.80;99.90
11934;DHT22;6026;48.784;9.198;2023-08-06T05:01:16;13.80;99.90
11934;DHT22;6026;48.784;9.198;2023-08-06T05:03:42;13.80;99.90
11934;DHT22;6026;48.784;9.198;2023-08-06T05:06:07;13.90;99.90
11934;DHT22;6026;48.784;9.198;2023-08-06T05:08:33;13.90;99.90
11934;DHT22;6026;48.784;9.198;2023-08-06T05:10:59;14.00;99.90
11934;DHT22;6026;48.784;9.198;2023-08-06T05:13:24;14.10;99.90
11934;DHT22;6026;48.784;9.198;2023-08-06T05:15:51;14.10;99.90
11934;DHT22;6026;48.784;9.198;2023-08-06T05:18:16;14.20;99.90
11934;DHT22;6026;48.784;9.198;2023-08-06T05:20:42;14.20;99.90
11934;DHT22;6026;48.784;9.198;2023-08-06T05:23:08;14.20;99.90
11934;DHT22;6026;48.784;9.198;2023-08-06T05:25:37;14.20;99.90
11934;DHT22;6026;48.784;9.198;2023-08-06T05:28:03;14.20;99.90
11934;DHT22;6026;48.784;9.198;2023-08-06T05:30:29;14.20;99.90
11934;DHT22;6026;48.784;9.198;2023-08-06T05:32:54;14.10;99.90
11934;DHT22;6026;48.784;9.198;2023-08-06T05:35:21;14.20;99.90
11934;DHT22;6026;48.784;9.198;2023-08-06T05:37:47;14.30;99.90
11934;DHT22;6026;48.784;9.198;2023-08-06T05:40:13;14.30;99.90
11934;DHT22;6026;48.784;9.198;2023-08-06T05:42:39;14.40;99.90
11934;DHT22;6026;48.784;9.198;2023-08-06T05:45:06;14.60;99.90
11934;DHT22;6026;48.784;9.198;2023-08-06T05:47:31;14.70;99.90
11934;DHT22;6026;48.784;9.198;2023-08-06T05:49:57;14.80;99.90
11934;DHT22;6026;48.784;9.198;2023-08-06T05:52:22;14.90;99.90
11934;DHT22;6026;48.784;9.198;2023-08-06T05:54:48;14.90;99.90
11934;DHT22;6026;48.784;9.198;2023-08-06T05:57:13;14.80;99.90
11934;DHT22;6026;48.784;9.198;2023-08-06T05:59:40;14.80;99.90
11934;DHT22;6026;48.784;9.198;2023-08-06T06:02:06;14.80;99.90
11934;DHT22;6026;48.784;9.198;2023-08-06T06:04:31;14.80;99.90
11934;DHT22;6026;48.784;9.198;2023-08-06T06:06:57;14.80;99.90
11934;DHT22;6026;48.784;9.198;2023-08-06T06:09:22;14.90;99.90
11934;DHT22;6026;48.784;9.198;2023-08-06T06:11:48;14.90;99.90
11934;DHT22;6026;48.784;9.198;2023-08-06T06:14:18;14.90;99.90
11934;DHT22;6026;48.784;9.198;2023-08-06T06:16:44;14.90;99.90
11934;DHT22;6026;48.784;9.198;2023-08-06T06:19:10;14.90;99.90
11934;DHT22;6026;48.784;9.198;2023-08-06T06:21:36;14.90;99.90
11934;DHT22;6026;48.784;9.198;2023-08-06T06:24:03;14.90;99.90
11934;DHT22;6026;48.784;9.198;2023-08-06T06:26:29;15.00;99.90
11934;DHT22;6026;48.784;9.198;2023-08-06T06:28:55;14.90;99.90
11934;DHT22;6026;48.784;9.198;2023-08-06T06:31:20;14.90;99.90
11934;DHT22;6026;48.784;9.198;2023-08-06T06:33:46;14.90;99.90
11934;DHT22;6026;48.784;9.198;2023-08-06T06:36:11;14.80;99.90
11934;DHT22;6026;48.784;9.198;2023-08-06T06:38:38;14.90;99.90
11934;DHT22;6026;48.784;9.198;2023-08-06T06:41:04;14.90;99.90
11934;DHT22;6026;48.784;9.198;2023-08-06T06:43:29;15.00;99.90
11934;DHT22;6026;48.784;9.198;2023-08-06T06:46:01;15.00;99.90
11934;DHT22;6026;48.784;9.198;2023-08-06T06:48:28;15.00;99.90
11934;DHT22;6026;48.784;9.198;2023-08-06T06:50:54;15.10;99.90
11934;DHT22;6026;48.784;9.198;2023-08-06T06:53:20;15.30;99.90
11934;DHT22;6026;48.784;9.198;2023-08-06T06:55:46;15.40;99.90
11934;DHT22;6026;48.784;9.198;2023-08-06T06:58:15;15.80;99.90
11934;DHT22;6026;48.784;9.198;2023-08-06T07:00:41;15.80;99.90
11934;DHT22;6026;48.784;9.198;2023-08-06T07:03:07;15.80;99.90
11934;DHT22;6026;48.784;9.198;2023-08-06T07:05:32;15.80;99.90
11934;DHT22;6026;48.784;9.198;2023-08-06T07:07:58;15.70;99.90
11934;DHT22;6026;48.784;9.198;2023-08-06T07:10:24;15.70;99.90
11934;DHT22;6026;48.784;9.198;2023-08-06T07:12:49;15.70;99.90
11934;DHT22;6026;48.784;9.198;2023-08-06T07:15:15;15.40;99.90
11934;DHT22;6026;48.784;9.198;2023-08-06T07:17:40;15.40;99.90
11934;DHT22;6026;48.784;9.198;2023-08-06T07:20:06;15.20;99.90
11934;DHT22;6026;48.784;9.198;2023-08-06T07:22:32;15.20;99.90
11934;DHT22;6026;48.784;9.198;2023-08-06T07:24:58;15.10;99.90
11934;DHT22;6026;48.784;9.198;2023-08-06T07:27:24;15.10;99.90
11934;DHT22;6026;48.784;9.198;2023-08-06T07:29:50;14.90;99.90
11934;DHT22;6026;48.784;9.198;2023-08-06T07:32:15;14.80;99.90
11934;DHT22;6026;48.784;9.198;2023-08-06T07:34:41;14.80;99.90
11934;DHT22;6026;48.784;9.198;2023-08-06T07:37:07;14.50;99.90
11934;DHT22;6026;48.784;9.198;2023-08-06T07:39:32;14.50;99.90
11934;DHT22;6026;48.784;9.198;2023-08-06T07:41:58;14.50;99.90
11934;DHT22;6026;48.784;9.198;2023-08-06T07:44:23;14.50;99.90
11934;DHT22;6026;48.784;9.198;2023-08-06T07:46:49;14.60;99.90
11934;DHT22;6026;48.784;9.198;2023-08-06T07:49:15;14.70;99.90
11934;DHT22;6026;48.784;9.198;2023-08-06T07:51:41;14.70;99.90
11934;DHT22;6026;48.784;9.198;2023-08-06T07:54:06;14.70;99.90
11934;DHT22;6026;48.784;9.198;2023-08-06T07:56:32;14.70;99.90
11934;DHT22;6026;48.784;9.198;2023-08-06T07:58:57;14.90;99.90
11934;DHT22;6026;48.784;9.198;2023-08-06T08:01:23;15.10;99.90
11934;DHT22;6026;48.784;9.198;2023-08-06T08:03:48;15.10;99.90
11934;DHT22;6026;48.784;9.198;2023-08-06T08:06:14;15.30;99.90
11934;DHT22;6026;48.784;9.198;2023-08-06T08:08:39;15.40;99.90
11934;DHT22;6026;48.784;9.198;2023-08-06T08:11:06;15.70;99.90
11934;DHT22;6026;48.784;9.198;2023-08-06T08:13:32;15.90;99.90
11934;DHT22;6026;48.784;9.198;2023-08-06T08:15:58;16.20;99.90
11934;DHT22;6026;48.784;9.198;2023-08-06T08:18:24;16.40;99.90
11934;DHT22;6026;48.784;9.198;2023-08-06T08:20:50;16.90;99.90
11934;DHT22;6026;48.784;9.198;2023-08-06T08:23:16;17.00;99.90
11934;DHT22;6026;48.784;9.198;2023-08-06T08:25:41;17.20;99.90
11934;DHT22;6026;48.784;9.198;2023-08-06T08:28:07;17.00;99.90
11934;DHT22;6026;48.784;9.198;2023-08-06T08:30:33;17.40;99.90
11934;DHT22;6026;48.784;9.198;2023-08-06T08:32:58;18.20;99.90
11934;DHT22;6026;48.784;9.198;2023-08-06T08:35:24;19.20;99.90
11934;DHT22;6026;48.784;9.198;2023-08-06T08:37:50;19.90;99.90
11934;DHT22;6026;48.784;9.198;2023-08-06T08:40:16;20.10;99.90
11934;DHT22;6026;48.784;9.198;2023-08-06T08:42:42;19.80;99.90
11934;DHT22;6026;48.784;9.198;2023-08-06T08:45:14;19.60;99.90
11934;DHT22;6026;48.784;9.198;2023-08-06T08:47:41;19.50;99.90
11934;DHT22;6026;48.784;9.198;2023-08-06T08:50:09;19.10;99.90
11934;DHT22;6026;48.784;9.198;2023-08-06T08:52:39;19.10;99.90
11934;DHT22;6026;48.784;9.198;2023-08-06T08:55:08;18.80;99.90
11934;DHT22;6026;48.784;9.198;2023-08-06T08:57:34;18.50;99.90
11934;DHT22;6026;48.784;9.198;2023-08-06T08:59:59;18.20;99.90
11934;DHT22;6026;48.784;9.198;2023-08-06T09:02:28;18.10;99.90
11934;DHT22;6026;48.784;9.198;2023-08-06T09:04:58;17.70;99.90
11934;DHT22;6026;48.784;9.198;2023-08-06T09:07:27;17.70;99.90
11934;DHT22;6026;48.784;9.198;2023-08-06T09:09:54;17.30;99.90
11934;DHT22;6026;48.784;9.198;2023-08-06T09:12:22;17.10;99.90
11934;DHT22;6026;48.784;9.198;2023-08-06T09:14:47;16.70;99.90
11934;DHT22;6026;48.784;9.198;2023-08-06T09:17:13;16.60;99.90
11934;DHT22;6026;48.784;9.198;2023-08-06T09:19:42;16.50;99.90
11934;DHT22;6026;48.784;9.198;2023-08-06T09:22:13;16.40;99.90
11934;DHT22;6026;48.784;9.198;2023-08-06T09:24:40;16.40;99.90
11934;DHT22;6026;48.784;9.198;2023-08-06T09:27:13;16.40;99.90
11934;DHT22;6026;48.784;9.198;2023-08-06T09:29:43;16.70;99.90
11934;DHT22;6026;48.784;9.198;2023-08-06T09:32:13;17.20;99.90
11934;DHT22;6026;48.784;9.198;2023-08-06T09:34:42;17.50;99.90
11934;DHT22;6026;48.784;9.198;2023-08-06T09:37:11;17.60;99.90
11934;DHT22;6026;48.784;9.198;2023-08-06T09:39:38;17.80;99.90
11934;DHT22;6026;48.784;9.198;2023-08-06T09:42:04;17.90;99.90
11934;DHT22;6026;48.784;9.198;2023-08-06T09:44:33;17.90;99.90
11934;DHT22;6026;48.784;9.198;2023-08-06T09:47:01;17.70;99.90
11934;DHT22;6026;48.784;9.198;2023-08-06T09:49:50;17.40;99.90
11934;DHT22;6026;48.784;9.198;2023-08-06T09:52:14;17.40;99.90
11934;DHT22;6026;48.784;9.198;2023-08-06T09:54:43;17.30;99.90
11934;DHT22;6026;48.784;9.198;2023-08-06T09:57:09;17.30;99.90
11934;DHT22;6026;48.784;9.198;2023-08-06T09:59:37;17.30;99.90
11934;DHT22;6026;48.784;9.198;2023-08-06T10:02:09;17.40;99.90
11934;DHT22;6026;48.784;9.198;2023-08-06T10:04:37;17.50;99.90
11934;DHT22;6026;48.784;9.198;2023-08-06T10:07:03;17.40;99.90
11934;DHT22;6026;48.784;9.198;2023-08-06T10:09:29;17.20;99.90
11934;DHT22;6026;48.784;9.198;2023-08-06T10:11:56;17.10;99.90
11934;DHT22;6026;48.784;9.198;2023-08-06T10:14:26;17.00;99.90
11934;DHT22;6026;48.784;9.198;2023-08-06T10:16:54;16.70;99.90
11934;DHT22;6026;48.784;9.198;2023-08-06T10:19:23;16.60;99.90
11934;DHT22;6026;48.784;9.198;2023-08-06T10:22:14;16.50;99.90
11934;DHT22;6026;48.784;9.198;2023-08-06T10:24:59;16.40;99.90
11934;DHT22;6026;48.784;9.198;2023-08-06T10:30:27;16.30;99.90
11934;DHT22;6026;48.784;9.198;2023-08-06T10:33:03;16.20;99.90
11934;DHT22;6026;48.784;9.198;2023-08-06T10:35:42;16.00;99.90
11934;DHT22;6026;48.784;9.198;2023-08-06T10:38:12;15.80;99.90
11934;DHT22;6026;48.784;9.198;2023-08-06T10:40:43;15.80;99.90
11934;DHT22;6026;48.784;9.198;2023-08-06T10:45:53;16.10;99.90
11934;DHT22;6026;48.784;9.198;2023-08-06T10:48:33;16.30;99.90
11934;DHT22;6026;48.784;9.198;2023-08-06T10:51:00;16.50;99.90
11934;DHT22;6026;48.784;9.198;2023-08-06T10:53:27;16.50;99.90
11934;DHT22;6026;48.784;9.198;2023-08-06T10:55:52;16.60;99.90
11934;DHT22;6026;48.784;9.198;2023-08-06T10:58:18;16.50;99.90
11934;DHT22;6026;48.784;9.198;2023-08-06T11:00:44;16.40;99.90
11934;DHT22;6026;48.784;9.198;2023-08-06T11:03:09;16.40;99.90
11934;DHT22;6026;48.784;9.198;2023-08-06T11:05:39;16.50;99.90
11934;DHT22;6026;48.784;9.198;2023-08-06T11:08:04;16.60;99.90
11934;DHT22;6026;48.784;9.198;2023-08-06T11:10:33;16.60;99.90
11934;DHT22;6026;48.784;9.198;2023-08-06T11:13:05;16.50;99.90
11934;DHT22;6026;48.784;9.198;2023-08-06T11:15:33;16.40;99.90
11934;DHT22;6026;48.784;9.198;2023-08-06T11:17:58;16.50;99.90
11934;DHT22;6026;48.784;9.198;2023-08-06T11:20:24;16.40;99.90
11934;DHT22;6026;48.784;9.198;2023-08-06T11:22:50;16.40;99.90
11934;DHT22;6026;48.784;9.198;2023-08-06T11:25:16;16.50;99.90
11934;DHT22;6026;48.784;9.198;2023-08-06T11:27:41;16.60;99.90
11934;DHT22;6026;48.784;9.198;2023-08-06T11:30:07;16.60;99.90
11934;DHT22;6026;48.784;9.198;2023-08-06T11:32:33;16.60;99.90
11934;DHT22;6026;48.784;9.198;2023-08-06T11:35:09;16.50;99.90
11934;DHT22;6026;48.784;9.198;2023-08-06T11:37:36;16.70;99.90
11934;DHT22;6026;48.784;9.198;2023-08-06T11:40:08;16.80;99.90
11934;DHT22;6026;48.784;9.198;2023-08-06T11:42:36;16.70;99.90
11934;DHT22;6026;48.784;9.198;2023-08-06T11:45:02;16.70;99.90
11934;DHT22;6026;48.784;9.198;2023-08-06T11:47:28;16.70;99.90
11934;DHT22;6026;48.784;9.198;2023-08-06T11:49:54;16.80;99.90
11934;DHT22;6026;48.784;9.198;2023-08-06T11:52:24;16.80;99.90
11934;DHT22;6026;48.784;9.198;2023-08-06T11:55:07;16.70;99.90
11934;DHT22;6026;48.784;9.198;2023-08-06T11:57:55;16.80;99.90
11934;DHT22;6026;48.784;9.198;2023-08-06T12:00:23;16.70;99.90
11934;DHT22;6026;48.784;9.198;2023-08-06T12:02:50;16.70;99.90
11934;DHT22;6026;48.784;9.198;2023-08-06T12:05:21;16.60;99.90
11934;DHT22;6026;48.784;9.198;2023-08-06T12:07:54;16.40;99.90
11934;DHT22;6026;48.784;9.198;2023-08-06T12:10:28;16.10;99.90
11934;DHT22;6026;48.784;9.198;2023-08-06T12:13:29;16.00;99.90
11934;DHT22;6026;48.784;9.198;2023-08-06T12:15:54;16.00;99.90
11934;DHT22;6026;48.784;9.198;2023-08-06T12:18:22;15.80;99.90
11934;DHT22;6026;48.784;9.198;2023-08-06T12:20:48;15.80;99.90
11934;DHT22;6026;48.784;9.198;2023-08-06T12:23:13;15.90;99.90
11934;DHT22;6026;48.784;9.198;2023-08-06T12:25:41;16.00;99.90
11934;DHT22;6026;48.784;9.198;2023-08-06T12:28:07;16.10;99.90
11934;DHT22;6026;48.784;9.198;2023-08-06T12:30:34;16.10;99.90
11934;DHT22;6026;48.784;9.198;2023-08-06T12:33:00;16.10;99.90
11934;DHT22;6026;48.784;9.198;2023-08-06T12:35:25;16.20;99.90
11934;DHT22;6026;48.784;9.198;2023-08-06T12:37:51;16.20;99.90
11934;DHT22;6026;48.784;9.198;2023-08-06T12:40:20;16.30;99.90
11934;DHT22;6026;48.784;9.198;2023-08-06T12:42:46;16.50;99.90
11934;DHT22;6026;48.784;9.198;2023-08-06T12:45:11;16.70;99.90
11934;DHT22;6026;48.784;9.198;2023-08-06T12:47:37;16.60;99.90
11934;DHT22;6026;48.784;9.198;2023-08-06T12:50:03;16.70;99.90
11934;DHT22;6026;48.784;9.198;2023-08-06T12:52:29;17.00;99.90
11934;DHT22;6026;48.784;9.198;2023-08-06T12:54:54;17.30;99.90
11934;DHT22;6026;48.784;9.198;2023-08-06T12:57:20;17.60;99.90
11934;DHT22;6026;48.784;9.198;2023-08-06T12:59:45;17.90;99.90
11934;DHT22;6026;48.784;9.198;2023-08-06T13:02:11;18.10;99.90
11934;DHT22;6026;48.784;9.198;2023-08-06T13:04:36;17.70;99.90
11934;DHT22;6026;48.784;9.198;2023-08-06T13:07:02;17.50;99.90
11934;DHT22;6026;48.784;9.198;2023-08-06T13:09:28;17.60;99.90
11934;DHT22;6026;48.784;9.198;2023-08-06T13:11:53;17.70;99.90
11934;DHT22;6026;48.784;9.198;2023-08-06T13:14:19;17.60;99.90
11934;DHT22;6026;48.784;9.198;2023-08-06T13:16:45;17.60;99.90
11934;DHT22;6026;48.784;9.198;2023-08-06T13:19:11;17.50;99.90
11934;DHT22;6026;48.784;9.198;2023-08-06T13:24:06;17.90;99.90
11934;DHT22;6026;48.784;9.198;2023-08-06T13:26:32;18.00;99.90
11934;DHT22;6026;48.784;9.198;2023-08-06T13:28:58;17.90;99.90
11934;DHT22;6026;48.784;9.198;2023-08-06T13:31:25;17.70;99.90
11934;DHT22;6026;48.784;9.198;2023-08-06T13:33:51;17.70;99.90
11934;DHT22;6026;48.784;9.198;2023-08-06T13:36:17;17.90;99.90
11934;DHT22;6026;48.784;9.198;2023-08-06T13:38:43;18.00;99.90
11934;DHT22;6026;48.784;9.198;2023-08-06T13:41:08;17.90;99.90
11934;DHT22;6026;48.784;9.198;2023-08-06T13:43:34;17.80;99.90
11934;DHT22;6026;48.784;9.198;2023-08-06T13:45:59;17.70;99.90
11934;DHT22;6026;48.784;9.198;2023-08-06T13:48:25;17.70;99.90
11934;DHT22;6026;48.784;9.198;2023-08-06T13:50:50;17.40;99.90
11934;DHT22;6026;48.784;9.198;2023-08-06T13:53:16;17.50;99.90
11934;DHT22;6026;48.784;9.198;2023-08-06T13:55:41;17.50;99.90
11934;DHT22;6026;48.784;9.198;2023-08-06T13:58:07;17.40;99.90
11934;DHT22;6026;48.784;9.198;2023-08-06T14:00:35;17.50;99.90
11934;DHT22;6026;48.784;9.198;2023-08-06T14:03:01;17.50;99.90
11934;DHT22;6026;48.784;9.198;2023-08-06T14:05:26;17.50;99.90
11934;DHT22;6026;48.784;9.198;2023-08-06T14:07:52;17.40;99.90
11934;DHT22;6026;48.784;9.198;2023-08-06T14:10:17;17.30;99.90
11934;DHT22;6026;48.784;9.198;2023-08-06T14:12:43;17.30;99.90
11934;DHT22;6026;48.784;9.198;2023-08-06T14:15:09;17.20;99.90
11934;DHT22;6026;48.784;9.198;2023-08-06T14:17:34;17.20;99.90
11934;DHT22;6026;48.784;9.198;2023-08-06T14:20:00;17.20;99.90
11934;DHT22;6026;48.784;9.198;2023-08-06T14:22:26;17.30;99.90
11934;DHT22;6026;48.784;9.198;2023-08-06T14:24:51;17.30;99.90
11934;DHT22;6026;48.784;9.198;2023-08-06T14:27:17;17.50;99.90
11934;DHT22;6026;48.784;9.198;2023-08-06T14:29:42;17.50;99.90
11934;DHT22;6026;48.784;9.198;2023-08-06T14:32:08;17.70;99.90
11934;DHT22;6026;48.784;9.198;2023-08-06T14:34:33;17.70;99.90
11934;DHT22;6026;48.784;9.198;2023-08-06T14:37:00;17.70;99.90
11934;DHT22;6026;48.784;9.198;2023-08-06T14:39:26;17.80;99.90
11934;DHT22;6026;48.784;9.198;2023-08-06T14:41:51;17.80;99.90
11934;DHT22;6026;48.784;9.198;2023-08-06T14:44:17;17.70;99.90
11934;DHT22;6026;48.784;9.198;2023-08-06T14:46:42;17.50;99.90
11934;DHT22;6026;48.784;9.198;2023-08-06T14:49:08;17.40;99.90
11934;DHT22;6026;48.784;9.198;2023-08-06T14:51:33;17.30;99.90
11934;DHT22;6026;48.784;9.198;2023-08-06T14:53:59;16.90;99.90
11934;DHT22;6026;48.784;9.198;2023-08-06T14:56:24;16.80;99.90
11934;DHT22;6026;48.784;9.198;2023-08-06T14:58:50;16.70;99.90
11934;DHT22;6026;48.784;9.198;2023-08-06T15:01:15;16.60;99.90
11934;DHT22;6026;48.784;9.198;2023-08-06T15:03:41;16.60;99.90
11934;DHT22;6026;48.784;9.198;2023-08-06T15:06:06;16.50;99.90
11934;DHT22;6026;48.784;9.198;2023-08-06T15:08:33;16.30;99.90
11934;DHT22;6026;48.784;9.198;2023-08-06T15:10:58;16.20;99.90
11934;DHT22;6026;48.784;9.198;2023-08-06T15:13:27;16.00;99.90
11934;DHT22;6026;48.784;9.198;2023-08-06T15:15:52;16.00;99.90
11934;DHT22;6026;48.784;9.198;2023-08-06T15:18:18;16.20;99.90
11934;DHT22;6026;48.784;9.198;2023-08-06T15:20:44;16.30;99.90
11934;DHT22;6026;48.784;9.198;2023-08-06T15:23:10;16.40;99.90
11934;DHT22;6026;48.784;9.198;2023-08-06T15:25:36;16.70;99.90
11934;DHT22;6026;48.784;9.198;2023-08-06T15:28:01;16.70;99.90
11934;DHT22;6026;48.784;9.198;2023-08-06T15:30:27;16.80;99.90
11934;DHT22;6026;48.784;9.198;2023-08-06T15:32:52;16.90;99.90
11934;DHT22;6026;48.784;9.198;2023-08-06T15:35:18;17.00;99.90
11934;DHT22;6026;48.784;9.198;2023-08-06T15:37:44;17.10;99.90
11934;DHT22;6026;48.784;9.198;2023-08-06T15:40:10;17.10;99.90
11934;DHT22;6026;48.784;9.198;2023-08-06T15:42:35;17.10;99.90
11934;DHT22;6026;48.784;9.198;2023-08-06T15:45:01;17.20;99.90
11934;DHT22;6026;48.784;9.198;2023-08-06T15:47:28;17.20;99.90
11934;DHT22;6026;48.784;9.198;2023-08-06T15:49:54;17.30;99.90
11934;DHT22;6026;48.784;9.198;2023-08-06T15:52:19;17.30;99.90
11934;DHT22;6026;48.784;9.198;2023-08-06T15:54:45;17.50;99.90
11934;DHT22;6026;48.784;9.198;2023-08-06T15:57:10;17.40;99.90